Time;durP1;ratioP1;P1;durP2;ratioP2;P2;SDS_P1;SDS_P2;PMS_P1;PMS_P2;Temp;Humidity;BMP_temperature;BMP_pressure;BME280_temperature;BME280_humidity;BME280_pressure;Samples;Min_cycle;Max_cycle;Signal;HPM_P1;HPM_P2
2022/02/16 00:00:41;;;;;;;8.60;5.00;;;5.70;99.90;;;;;;5178425;28;20046;-39
2022/02/16 00:03:14;;;;;;;7.82;4.70;;;;;;;;;;5184222;28;20046;-42
2022/02/16 00:05:47;;;;;;;9.05;5.47;;;4.40;99.90;;;;;;5183754;28;20056;-40
2022/02/16 00:08:20;;;;;;;7.60;5.03;;;;;;;;;;5178983;28;20056;-41
2022/02/16 00:10:52;;;;;;;8.13;5.10;;;4.90;99.90;;;;;;5175448;28;20052;-43
2022/02/16 00:13:25;;;;;;;9.13;5.05;;;5.30;99.90;;;;;;5177292;28;20045;-40
2022/02/16 00:15:58;;;;;;;7.72;4.65;;;3.40;99.90;;;;;;5185137;28;20060;-40
2022/02/16 00:18:30;;;;;;;7.10;4.75;;;;;;;;;;5173061;28;20054;-41
2022/02/16 00:21:04;;;;;;;8.63;4.82;;;6.60;99.90;;;;;;5167311;28;20051;-40
2022/02/16 00:23:36;;;;;;;;;;;3.40;99.90;;;;;;5180621;28;20048;-40
2022/02/16 00:26:10;;;;;;;7.30;4.82;;;;;;;;;;5183852;28;19951;-41
2022/02/16 00:28:43;;;;;;;7.40;4.50;;;;;;;;;;5180856;28;20053;-40
2022/02/16 00:31:16;;;;;;;8.30;5.32;;;;;;;;;;5181122;28;20762;-42
2022/02/16 00:33:49;;;;;;;9.63;5.00;;;;;;;;;;5181828;28;20056;-40
2022/02/16 00:36:22;;;;;;;8.65;4.70;;;;;;;;;;5170556;28;20525;-40
2022/02/16 00:38:55;;;;;;;10.35;4.75;;;;;;;;;;5168980;28;20041;-39
2022/02/16 00:41:28;;;;;;;6.25;4.35;;;;;;;;;;5194448;22;20329;-30
2022/02/16 00:44:01;;;;;;;6.90;4.35;;;;;;;;;;5180840;28;21422;-30
2022/02/16 00:46:34;;;;;;;7.78;4.50;;;;;;;;;;5173948;28;20191;-29
2022/02/16 00:49:07;;;;;;;6.32;4.45;;;;;;;;;;5192878;28;20048;-31
2022/02/16 00:51:42;;;;;;;6.90;4.87;;;;;;;;;;5183604;28;20049;-41
2022/02/16 00:54:15;;;;;;;8.13;4.10;;;;;;;;;;5184896;28;20333;-29
2022/02/16 00:56:47;;;;;;;7.03;4.65;;;;;;;;;;5173804;28;20076;-30
2022/02/16 00:59:25;;;;;;;7.68;4.80;;;;;;;;;;5170176;28;20040;-30
2022/02/16 01:01:58;;;;;;;6.30;4.20;;;2.40;99.90;;;;;;5163958;28;20064;-29
2022/02/16 01:04:31;;;;;;;7.80;4.65;;;;;;;;;;5163004;28;20049;-29
2022/02/16 01:07:04;;;;;;;5.57;3.97;;;;;;;;;;5168936;28;20054;-30
2022/02/16 01:09:37;;;;;;;9.05;4.70;;;;;;;;;;5166465;28;20056;-29
2022/02/16 01:12:10;;;;;;;8.27;4.38;;;;;;;;;;5139072;28;20521;-29
2022/02/16 01:14:44;;;;;;;9.20;4.38;;;;;;;;;;5165773;28;20528;-30
2022/02/16 01:17:23;;;;;;;6.38;4.18;;;;;;;;;;5171294;28;20045;-29
2022/02/16 01:20:10;;;;;;;6.82;4.18;;;5.30;99.90;;;;;;5164143;28;20037;-30
2022/02/16 01:22:45;;;;;;;5.30;3.65;;;;;;;;;;5153547;28;20322;-29
2022/02/16 01:25:20;;;;;;;5.05;3.53;;;;;;;;;;5168505;28;20051;-29
2022/02/16 01:27:53;;;;;;;6.07;3.55;;;;;;;;;;5159418;28;20041;-31
2022/02/16 01:30:29;;;;;;;6.45;3.80;;;4.80;99.90;;;;;;5174928;28;20037;-30
2022/02/16 01:33:10;;;;;;;11.40;4.35;;;;;;;;;;5171155;28;20033;-30
2022/02/16 01:35:50;;;;;;;7.57;4.05;;;;;;;;;;5174077;28;20034;-31
2022/02/16 01:38:23;;;;;;;5.33;3.20;;;1.70;99.90;;;;;;5169456;28;20173;-30
2022/02/16 01:41:05;;;;;;;8.18;3.63;;;;;;;;;;5169569;28;20049;-30
2022/02/16 01:43:43;;;;;;;6.00;3.75;;;2.90;99.90;;;;;;5188099;28;20044;-30
2022/02/16 01:46:18;;;;;;;4.25;3.17;;;;;;;;;;5188187;28;20188;-30
2022/02/16 01:48:54;;;;;;;4.85;3.38;;;;;;;;;;5176927;28;20041;-29
2022/02/16 01:51:27;;;;;;;5.72;3.55;;;;;;;;;;5161934;28;20649;-29
2022/02/16 01:54:00;;;;;;;6.03;3.05;;;;;;;;;;5153046;28;20513;-30
2022/02/16 01:56:34;;;;;;;8.15;3.28;;;;;;;;;;5166796;28;20068;-29
2022/02/16 01:59:07;;;;;;;4.32;3.22;;;;;;;;;;5173193;28;20519;-30
2022/02/16 02:01:59;;;;;;;5.55;3.08;;;;;;;;;;5188573;28;20061;-30
2022/02/16 02:04:31;;;;;;;4.50;3.00;;;;;;;;;;5184335;28;20052;-30
2022/02/16 02:07:10;;;;;;;4.00;2.58;;;;;;;;;;5154637;28;20071;-30
2022/02/16 02:09:43;;;;;;;4.80;3.13;;;;;;;;;;5166222;28;20041;-30
2022/02/16 02:12:16;;;;;;;3.60;2.70;;;;;;;;;;5170415;28;20045;-31
2022/02/16 02:14:52;;;;;;;6.00;3.20;;;2.90;99.90;;;;;;5186824;28;20050;-29
2022/02/16 02:17:44;;;;;;;3.47;2.63;;;;;;;;;;5171818;28;20045;-30
2022/02/16 02:20:24;;;;;;;3.63;2.80;;;2.80;99.90;;;;;;5166254;28;20064;-29
2022/02/16 02:22:58;;;;;;;4.03;2.60;;;;;;;;;;5182384;28;20065;-30
2022/02/16 02:25:45;;;;;;;6.45;3.13;;;2.80;99.90;;;;;;5189816;28;20049;-31
2022/02/16 02:28:23;;;;;;;4.85;2.63;;;2.80;99.90;;;;;;5166199;28;20084;-29
2022/02/16 02:30:58;;;;;;;3.50;2.55;;;;;;;;;;5188226;28;20678;-30
2022/02/16 02:33:33;;;;;;;2.65;2.35;;;;;;;;;;5168671;28;20417;-30
2022/02/16 02:36:07;;;;;;;6.40;3.37;;;2.90;99.90;;;;;;5193551;28;20053;-30
2022/02/16 02:38:40;;;;;;;3.15;2.58;;;;;;;;;;5184052;28;20445;-30
2022/02/16 02:41:12;;;;;;;3.53;2.57;;;;;;;;;;5187899;28;20539;-30
2022/02/16 02:43:47;;;;;;;3.90;2.47;;;2.70;99.90;;;;;;5170078;28;20049;-30
2022/02/16 02:46:20;;;;;;;5.30;2.63;;;2.60;99.90;;;;;;5184100;28;20037;-30
2022/02/16 02:49:01;;;;;;;5.88;2.53;;;;;;;;;;5151081;28;20038;-30
2022/02/16 02:51:34;;;;;;;3.80;2.80;;;;;;;;;;5170224;28;20497;-30
2022/02/16 02:54:07;;;;;;;3.30;2.60;;;;;;;;;;5166955;28;20049;-30
2022/02/16 02:56:45;;;;;;;4.60;2.40;;;;;;;;;;5170861;28;20314;-30
2022/02/16 02:59:18;;;;;;;;;;;2.70;99.90;;;;;;5170524;28;20040;-30
2022/02/16 03:01:56;;;;;;;2.92;2.15;;;;;;;;;;5168199;28;19947;-29
2022/02/16 03:04:29;;;;;;;2.85;2.30;;;;;;;;;;5165148;28;20533;-29
2022/02/16 03:07:02;;;;;;;3.33;2.40;;;;;;;;;;5131892;28;20045;-30
2022/02/16 03:09:35;;;;;;;3.30;2.25;;;;;;;;;;5191015;28;20520;-30
2022/02/16 03:12:07;;;;;;;3.28;2.33;;;;;;;;;;5171131;28;20446;-30
2022/02/16 03:14:40;;;;;;;3.33;2.03;;;;;;;;;;5188545;28;20052;-31
2022/02/16 03:17:14;;;;;;;2.80;2.05;;;;;;;;;;5164379;28;20041;-32
2022/02/16 03:19:47;;;;;;;5.28;2.53;;;;;;;;;;5172046;28;20041;-30
2022/02/16 03:22:20;;;;;;;3.53;2.58;;;;;;;;;;5177280;28;20611;-31
2022/02/16 03:24:53;;;;;;;2.45;1.90;;;;;;;;;;5164965;28;20068;-31
2022/02/16 03:27:26;;;;;;;5.07;1.93;;;;;;;;;;5174895;28;20037;-31
2022/02/16 03:30:09;;;;;;;2.50;1.80;;;2.50;99.90;;;;;;5173250;28;20045;-30
2022/02/16 03:32:55;;;;;;;4.32;2.25;;;;;;;;;;5178948;28;20048;-31
2022/02/16 03:35:28;;;;;;;3.03;2.30;;;;;;;;;;5194184;28;20500;-32
2022/02/16 03:38:04;;;;;;;2.55;2.22;;;;;;;;;;5166986;28;20084;-30
2022/02/16 03:40:36;;;;;;;3.00;1.90;;;;;;;;;;5193228;28;20037;-31
2022/02/16 03:43:10;;;;;;;2.28;1.77;;;;;;;;;;5174177;28;20056;-32
2022/02/16 03:45:42;;;;;;;1.90;1.80;;;;;;;;;;5164829;28;20412;-31
2022/02/16 03:48:15;;;;;;;2.25;1.80;;;;;;;;;;5174324;28;20040;-31
2022/02/16 03:50:49;;;;;;;2.63;1.67;;;;;;;;;;5172365;28;20037;-31
2022/02/16 03:53:23;;;;;;;1.95;1.70;;;;;;;;;;5167757;28;20049;-32
2022/02/16 03:55:56;;;;;;;2.92;1.95;;;;;;;;;;5192802;28;20175;-31
2022/02/16 03:58:29;;;;;;;2.67;2.08;;;;;;;;;;5192472;28;20488;-32
2022/02/16 04:01:02;;;;;;;1.45;1.35;;;;;;;;;;5166905;28;20050;-30
2022/02/16 04:03:36;;;;;;;4.05;1.70;;;;;;;;;;5168173;28;20052;-30
2022/02/16 04:06:08;;;;;;;2.42;1.67;;;;;;;;;;5187189;28;20405;-31
2022/02/16 04:08:41;;;;;;;1.60;1.50;;;;;;;;;;5164472;28;20056;-32
2022/02/16 04:11:15;;;;;;;2.13;1.48;;;;;;;;;;5189929;28;20650;-31
2022/02/16 04:13:50;;;;;;;2.53;1.60;;;;;;;;;;5176750;28;20049;-31
2022/02/16 04:16:23;;;;;;;1.98;1.65;;;2.80;99.90;;;;;;5171490;28;20500;-31
2022/02/16 04:18:55;;;;;;;;;;;2.80;99.90;;;;;;5182697;28;20529;-31
2022/02/16 04:21:28;;;;;;;1.80;1.50;;;;;;;;;;5160917;28;19929;-32
2022/02/16 04:24:01;;;;;;;1.90;1.70;;;;;;;;;;5170096;28;20044;-31
2022/02/16 04:26:34;;;;;;;2.03;1.83;;;;;;;;;;5187597;28;20393;-31
2022/02/16 04:29:07;;;;;;;1.50;1.40;;;;;;;;;;5166030;28;20041;-30
2022/02/16 04:31:45;;;;;;;2.40;1.50;;;;;;;;;;5165980;28;20643;-31
2022/02/16 04:34:18;;;;;;;2.40;1.73;;;;;;;;;;5186572;28;20342;-31
2022/02/16 04:36:50;;;;;;;1.65;1.50;;;;;;;;;;5187866;28;20053;-30
2022/02/16 04:39:24;;;;;;;2.92;1.50;;;;;;;;;;5169092;28;20610;-31
2022/02/16 04:41:57;;;;;;;;;;;2.70;99.90;;;;;;5177064;28;20045;-31
2022/02/16 04:44:30;;;;;;;1.80;1.33;;;;;;;;;;5188263;28;20264;-32
2022/02/16 04:47:12;;;;;;;2.90;1.70;;;;;;;;;;5164686;28;20044;-31
2022/02/16 04:49:47;;;;;;;1.55;1.23;;;;;;;;;;5173286;28;20059;-30
2022/02/16 04:52:20;;;;;;;1.73;1.40;;;;;;;;;;5169032;28;20586;-31
2022/02/16 04:54:53;;;;;;;1.48;1.20;;;;;;;;;;5167721;28;20531;-31
2022/02/16 04:57:26;;;;;;;3.22;1.48;;;;;;;;;;5172837;28;20524;-32
2022/02/16 05:00:01;;;;;;;1.50;1.40;;;2.70;99.90;;;;;;5174640;28;20502;-31
2022/02/16 05:02:39;;;;;;;1.45;1.27;;;;;;;;;;5160684;28;20095;-32
2022/02/16 05:05:12;;;;;;;2.77;1.67;;;;;;;;;;5186068;28;20545;-31
2022/02/16 05:07:45;;;;;;;1.67;1.45;;;;;;;;;;5166541;28;20037;-31
2022/02/16 05:10:18;;;;;;;1.92;1.42;;;;;;;;;;5166680;28;20041;-31
2022/02/16 05:12:51;;;;;;;1.50;1.40;;;;;;;;;;5178231;28;20688;-30
2022/02/16 05:15:24;;;;;;;2.10;1.80;;;;;;;;;;5176318;28;20889;-31
2022/02/16 05:17:59;;;;;;;3.13;1.80;;;;;;;;;;5185542;28;20287;-32
2022/02/16 05:20:50;;;;;;;5.45;1.70;;;;;;;;;;5172294;28;20546;-30
2022/02/16 05:23:22;;;;;;;2.80;1.77;;;;;;;;;;5164346;28;20414;-32
2022/02/16 05:26:02;;;;;;;2.25;1.73;;;;;;;;;;5167998;28;20296;-31
2022/02/16 05:28:34;;;;;;;2.90;2.07;;;;;;;;;;5162470;28;20052;-31
2022/02/16 05:31:08;;;;;;;1.90;1.60;;;;;;;;;;5151561;28;20667;-31
2022/02/16 05:33:41;;;;;;;3.53;2.35;;;;;;;;;;5185074;28;20057;-31
2022/02/16 05:36:19;;;;;;;3.78;2.22;;;;;;;;;;5184795;28;20048;-31
2022/02/16 05:38:52;;;;;;;;;;;2.80;99.90;;;;;;5179892;28;20053;-30
2022/02/16 05:41:27;;;;;;;5.38;2.78;;;;;;;;;;5168212;28;20088;-30
2022/02/16 05:44:06;;;;;;;5.57;3.03;;;;;;;;;;5153772;28;20093;-30
2022/02/16 05:46:39;;;;;;;4.60;2.40;;;;;;;;;;5164922;28;20583;-31
2022/02/16 05:49:12;;;;;;;4.40;2.45;;;;;;;;;;5163170;28;20038;-30
2022/02/16 05:51:45;;;;;;;3.33;2.00;;;;;;;;;;5160052;28;20057;-31
2022/02/16 05:54:19;;;;;;;2.10;1.80;;;;;;;;;;5166385;28;20052;-30
2022/02/16 05:56:52;;;;;;;1.90;1.40;;;;;;;;;;5189598;28;20338;-31
2022/02/16 05:59:26;;;;;;;3.58;1.70;;;;;;;;;;5167936;28;20813;-31
2022/02/16 06:02:04;;;;;;;2.53;1.52;;;;;;;;;;5147127;28;20034;-31
2022/02/16 06:04:37;;;;;;;2.33;1.45;;;;;;;;;;5156732;28;20051;-30
2022/02/16 06:07:10;;;;;;;2.65;1.70;;;;;;;;;;5184633;28;20045;-30
2022/02/16 06:09:43;;;;;;;2.90;2.05;;;;;;;;;;5167408;28;20055;-30
2022/02/16 06:12:16;;;;;;;2.58;2.03;;;;;;;;;;5170489;28;20050;-31
2022/02/16 06:14:48;;;;;;;1.97;1.60;;;;;;;;;;5163534;28;20131;-30
2022/02/16 06:17:21;;;;;;;2.97;1.58;;;;;;;;;;5176102;28;20056;-31
2022/02/16 06:19:57;;;;;;;4.35;1.67;;;;;;;;;;5173374;28;20061;-31
2022/02/16 06:22:29;;;;;;;2.60;1.90;;;;;;;;;;5149254;28;20042;-31
2022/02/16 06:25:03;;;;;;;2.92;2.20;;;;;;;;;;5169398;28;20055;-30
2022/02/16 06:27:37;;;;;;;2.92;2.13;;;;;;;;;;5159811;28;20644;-31
2022/02/16 06:30:10;;;;;;;3.38;2.20;;;;;;;;;;5166616;28;20037;-30
2022/02/16 06:32:50;;;;;;;4.43;2.50;;;;;;;;;;5160170;28;20049;-31
2022/02/16 06:35:24;;;;;;;3.85;2.22;;;;;;;;;;5169772;28;20052;-30
2022/02/16 06:37:56;;;;;;;3.10;1.97;;;;;;;;;;5186260;28;20048;-30
2022/02/16 06:40:32;;;;;;;5.60;1.65;;;3.00;99.90;;;;;;5176001;28;20045;-30
2022/02/16 06:43:07;;;;;;;2.67;1.75;;;;;;;;;;5196679;23;21244;-89
2022/02/16 06:45:40;;;;;;;2.58;1.80;;;;;;;;;;5174519;28;20045;-89
2022/02/16 06:48:13;;;;;;;2.17;1.70;;;;;;;;;;5188571;28;20045;-89
2022/02/16 06:50:47;;;;;;;2.95;1.83;;;;;;;;;;5160795;28;20053;-89
2022/02/16 06:53:20;;;;;;;1.98;1.63;;;;;;;;;;5157169;28;20067;-88
2022/02/16 06:55:54;;;;;;;2.15;1.75;;;;;;;;;;5167723;28;20052;-88
2022/02/16 06:58:47;;;;;;;2.67;1.55;;;;;;;;;;5190673;28;20780;-87
2022/02/16 07:01:21;;;;;;;2.58;2.08;;;;;;;;;;5176614;28;20044;-89
2022/02/16 07:03:55;;;;;;;4.57;3.95;;;;;;;;;;5181246;28;20079;-89
2022/02/16 07:06:32;;;;;;;5.20;2.75;;;;;;;;;;5196342;28;20045;-88
2022/02/16 07:09:13;;;;;;;3.28;2.05;;;;;;;;;;5159218;28;20045;-86
2022/02/16 07:11:47;;;;;;;1.58;1.33;;;;;;;;;;5174793;28;20057;-88
2022/02/16 07:14:20;;;;;;;2.47;1.77;;;;;;;;;;5165601;28;20049;-89
2022/02/16 07:16:53;;;;;;;2.03;1.63;;;;;;;;;;5177997;28;20060;-88
2022/02/16 07:19:27;;;;;;;2.47;1.75;;;;;;;;;;5189682;28;20425;-88
2022/02/16 07:22:13;;;;;;;2.47;1.52;;;;;;;;;;5171641;28;20059;-87
2022/02/16 07:24:46;;;;;;;2.10;1.30;;;;;;;;;;5151697;28;20056;-89
2022/02/16 07:27:20;;;;;;;2.17;1.67;;;;;;;;;;5174671;28;20287;-87
2022/02/16 07:29:53;;;;;;;3.17;1.52;;;;;;;;;;5178001;28;20048;-86
2022/02/16 07:32:27;;;;;;;12.48;1.90;;;;;;;;;;5173810;28;20049;-88
2022/02/16 07:35:01;;;;;;;3.03;1.60;;;;;;;;;;5167919;28;20549;-89
2022/02/16 07:37:35;;;;;;;5.32;1.83;;;;;;;;;;5146588;28;20533;-89
2022/02/16 07:40:08;;;;;;;6.00;2.80;;;3.60;99.90;;;;;;5167726;28;20040;-89
2022/02/16 07:42:43;;;;;;;3.92;2.08;;;;;;;;;;5169508;28;20127;-88
2022/02/16 07:45:45;;;;;;;5.35;2.80;;;;;;;;;;5139976;28;20068;-88
2022/02/16 07:48:22;;;;;;;3.92;2.00;;;;;;;;;;5150426;28;20089;-89
2022/02/16 07:50:55;;;;;;;3.92;1.70;;;;;;;;;;5156287;28;20060;-89
2022/02/16 07:53:49;;;;;;;3.38;1.90;;;;;;;;;;5171753;28;20041;-88
2022/02/16 07:56:23;;;;;;;5.55;2.03;;;;;;;;;;5168585;28;20056;-89
2022/02/16 07:58:56;;;;;;;4.37;2.10;;;;;;;;;;5165355;28;20056;-89
2022/02/16 08:01:29;;;;;;;5.23;2.10;;;;;;;;;;5181332;28;20049;-89
2022/02/16 08:04:17;;;;;;;2.93;1.80;;;;;;;;;;5186686;28;20056;-88
2022/02/16 08:06:56;;;;;;;5.43;1.58;;;4.00;99.90;;;;;;5167470;28;20528;-88
2022/02/16 08:09:30;;;;;;;3.03;1.77;;;;;;;;;;5175143;28;20041;-87
2022/02/16 08:12:03;;;;;;;1.98;1.17;;;;;;;;;;5157973;28;20494;-88
2022/02/16 08:14:37;;;;;;;3.88;1.48;;;;;;;;;;5166852;28;20406;-88
2022/02/16 08:17:11;;;;;;;2.60;1.45;;;;;;;;;;5190314;28;20998;-89
2022/02/16 08:19:44;;;;;;;2.78;1.60;;;;;;;;;;5161258;28;20417;-89
2022/02/16 08:22:17;;;;;;;4.73;2.13;;;;;;;;;;5188557;28;20061;-89
2022/02/16 08:24:51;;;;;;;3.85;1.63;;;;;;;;;;5164997;28;20292;-88
2022/02/16 08:27:45;;;;;;;6.40;1.92;;;;;;;;;;5188023;28;20426;-90
2022/02/16 08:30:23;;;;;;;6.97;2.72;;;;;;;;;;5189315;28;20048;-87
2022/02/16 08:32:56;;;;;;;6.43;2.70;;;;;;;;;;5193218;28;20064;-89
2022/02/16 08:35:39;;;;;;;5.38;3.08;;;4.60;99.90;;;;;;5182512;28;20049;-90
2022/02/16 08:38:24;;;;;;;6.60;3.55;;;;;;;;;;5169830;28;20057;-90
2022/02/16 08:41:16;;;;;;;1.95;1.70;;;;;;;;;;5197622;28;20056;-89
2022/02/16 08:44:10;;;;;;;2.28;1.40;;;;;;;;;;5190264;28;20056;-89
2022/02/16 08:47:01;;;;;;;2.63;1.40;;;;;;;;;;5188421;28;20518;-89
2022/02/16 08:53:27;;;;;;;2.67;1.70;;;5.10;97.70;;;;;;5180373;28;20099;-91
2022/02/16 08:59:39;;;;;;;6.07;1.63;;;;;;;;;;5185338;23;20055;-31
2022/02/16 09:02:12;;;;;;;5.20;1.67;;;;;;;;;;5212313;28;20037;-32
2022/02/16 09:04:45;;;;;;;3.53;1.50;;;;;;;;;;5230561;28;20055;-31
2022/02/16 09:07:30;;;;;;;1.73;1.60;;;;;;;;;;5223192;28;20048;-32
2022/02/16 09:10:06;;;;;;;2.50;1.50;;;5.50;96.00;;;;;;5211728;28;20056;-32
2022/02/16 09:12:40;;;;;;;2.88;1.25;;;;;;;;;;5220246;28;20508;-31
2022/02/16 09:15:12;;;;;;;2.20;1.40;;;;;;;;;;5214845;28;20044;-31
2022/02/16 09:17:45;;;;;;;3.22;1.65;;;;;;;;;;5212778;28;20056;-31
2022/02/16 09:20:18;;;;;;;1.75;1.30;;;;;;;;;;5216079;28;20419;-32
2022/02/16 09:22:51;;;;;;;1.88;1.42;;;5.70;95.00;;;;;;5217566;28;20052;-33
2022/02/16 09:25:25;;;;;;;2.08;1.25;;;;;;;;;;5200955;28;20056;-32
2022/02/16 09:27:58;;;;;;;2.30;1.67;;;;;;;;;;5208496;28;20049;-31
2022/02/16 09:30:35;;;;;;;1.75;1.10;;;5.80;93.90;;;;;;5217902;28;20059;-32
2022/02/16 09:33:07;;;;;;;1.73;1.20;;;6.40;95.00;;;;;;5229761;28;20528;-33
2022/02/16 09:35:40;;;;;;;2.05;1.40;;;;;;;;;;5222945;28;20048;-32
2022/02/16 09:38:14;;;;;;;2.20;1.58;;;6.20;95.10;;;;;;5224792;28;20051;-31
2022/02/16 09:40:49;;;;;;;1.60;1.27;;;4.90;95.00;;;;;;5226866;28;20492;-33
2022/02/16 09:43:23;;;;;;;1.95;1.30;;;;;;;;;;5227860;28;20048;-32
2022/02/16 09:45:57;;;;;;;2.63;1.30;;;;;;;;;;5228625;28;20056;-32
2022/02/16 09:48:33;;;;;;;1.60;1.10;;;;;;;;;;5225001;28;20713;-33
2022/02/16 09:51:05;;;;;;;1.98;1.10;;;5.90;93.70;;;;;;5227256;28;20074;-32
2022/02/16 09:53:39;;;;;;;1.33;1.10;;;;;;;;;;5216902;28;20052;-41
2022/02/16 09:56:14;;;;;;;1.23;1.05;;;;;;;;;;5223515;28;20563;-31
2022/02/16 09:58:47;;;;;;;1.42;1.15;;;;;;;;;;5232845;28;20044;-32
2022/02/16 10:01:21;;;;;;;2.03;1.00;;;6.50;93.80;;;;;;5244524;28;20051;-32
2022/02/16 10:04:05;;;;;;;1.83;1.08;;;3.90;92.80;;;;;;5229129;28;20044;-32
2022/02/16 10:06:40;;;;;;;1.08;0.95;;;6.30;92.50;;;;;;5243081;28;20049;-31
2022/02/16 10:09:35;;;;;;;5.03;1.10;;;6.40;92.10;;;;;;5243251;28;20043;-31
2022/02/16 10:12:12;;;;;;;2.13;1.40;;;6.80;92.90;;;;;;5247405;28;20040;-32
2022/02/16 10:14:45;;;;;;;3.53;1.25;;;6.40;92.10;;;;;;5216613;28;20043;-32
2022/02/16 10:17:19;;;;;;;1.30;1.20;;;6.50;91.90;;;;;;5248138;28;20055;-32
2022/02/16 10:19:56;;;;;;;3.08;1.38;;;7.00;92.30;;;;;;5224654;28;20043;-31
2022/02/16 10:22:39;;;;;;;2.08;1.42;;;6.20;91.50;;;;;;5240011;28;20044;-32
2022/02/16 10:25:12;;;;;;;1.48;1.17;;;;;;;;;;5246032;28;20052;-31
2022/02/16 10:28:20;;;;;;;2.13;1.20;;;7.20;91.50;;;;;;5247344;28;20523;-32
2022/02/16 10:31:03;;;;;;;2.50;1.20;;;8.20;91.50;;;;;;5231355;28;20036;-32
2022/02/16 10:33:40;;;;;;;3.78;1.20;;;4.10;90.70;;;;;;5241695;28;20052;-32
2022/02/16 10:36:23;;;;;;;1.63;1.10;;;6.70;90.20;;;;;;5226391;28;20048;-31
2022/02/16 10:38:56;;;;;;;2.67;1.10;;;;;;;;;;5221698;28;20071;-31
2022/02/16 10:41:34;;;;;;;2.60;1.25;;;7.90;91.30;;;;;;5236432;28;20047;-31
2022/02/16 10:44:20;;;;;;;2.78;1.60;;;4.60;90.40;;;;;;5243018;28;20040;-32
2022/02/16 10:47:01;;;;;;;1.60;1.27;;;9.80;92.00;;;;;;5244726;28;20044;-32
2022/02/16 10:49:39;;;;;;;8.68;1.00;;;6.40;90.00;;;;;;5232017;28;20056;-32
2022/02/16 10:52:20;;;;;;;1.92;1.20;;;6.00;90.60;;;;;;5241904;28;21027;-31
2022/02/16 10:54:58;;;;;;;4.68;1.40;;;7.00;90.10;;;;;;5243777;28;20047;-32
2022/02/16 10:57:31;;;;;;;2.92;1.73;;;;;;;;;;5219853;28;20941;-32
2022/02/16 11:00:05;;;;;;;2.37;1.40;;;7.70;91.00;;;;;;5230302;28;20360;-33
2022/02/16 11:02:40;;;;;;;3.25;1.40;;;7.40;91.30;;;;;;5230662;28;20051;-32
2022/02/16 11:05:15;;;;;;;2.42;1.40;;;6.90;91.20;;;;;;5240153;28;20491;-32
2022/02/16 11:07:48;;;;;;;3.35;1.80;;;9.60;93.40;;;;;;5241181;28;20044;-32
2022/02/16 11:10:25;;;;;;;2.92;1.40;;;5.60;93.20;;;;;;5218913;28;20047;-32
2022/02/16 11:12:58;;;;;;;2.83;1.33;;;8.10;94.30;;;;;;5234011;28;20426;-32
2022/02/16 11:15:31;;;;;;;3.87;1.83;;;9.90;95.50;;;;;;5217649;28;20040;-32
2022/02/16 11:18:21;;;;;;;2.35;1.20;;;4.90;94.40;;;;;;5245653;28;20316;-32
2022/02/16 11:21:08;;;;;;;1.40;1.08;;;9.20;96.10;;;;;;5242387;28;20120;-32
2022/02/16 11:23:49;;;;;;;1.65;1.10;;;5.40;94.60;;;;;;5240557;28;20052;-30
2022/02/16 11:26:45;;;;;;;1.85;1.25;;;6.80;95.10;;;;;;5227055;28;20051;-32
2022/02/16 11:29:26;;;;;;;2.42;1.70;;;6.70;95.60;;;;;;5232265;28;21075;-31
2022/02/16 11:32:17;;;;;;;12.52;2.17;;;7.90;96.30;;;;;;5201048;28;20044;-31
2022/02/16 11:35:15;;;;;;;3.08;1.33;;;7.60;95.90;;;;;;5233939;28;20570;-33
2022/02/16 11:38:04;;;;;;;6.70;3.00;;;8.80;97.50;;;;;;5226808;28;20055;-31
2022/02/16 11:40:46;;;;;;;2.33;1.60;;;9.00;98.10;;;;;;5227331;28;20044;-30
2022/02/16 11:43:22;;;;;;;2.28;1.70;;;4.50;97.30;;;;;;5213108;28;20047;-31
2022/02/16 11:46:00;;;;;;;3.10;1.70;;;6.90;97.80;;;;;;5229689;28;20036;-31
2022/02/16 11:48:40;;;;;;;4.05;2.00;;;7.90;99.50;;;;;;5233226;28;20745;-31
2022/02/16 11:51:25;;;;;;;3.67;2.08;;;7.00;98.80;;;;;;5209643;28;20044;-30
2022/02/16 11:53:58;;;;;;;13.90;8.90;;;;;;;;;;5233634;28;20056;-31
2022/02/16 11:56:35;;;;;;;3.77;2.37;;;6.70;99.90;;;;;;5222585;28;20052;-31
2022/02/16 11:59:14;;;;;;;2.40;1.85;;;4.80;99.90;;;;;;5207189;28;20067;-31
2022/02/16 12:02:05;;;;;;;3.78;2.17;;;6.90;99.90;;;;;;5229537;28;20220;-31
2022/02/16 12:04:56;;;;;;;5.35;1.80;;;8.30;99.90;;;;;;5219250;28;20504;-31
2022/02/16 12:07:30;;;;;;;2.97;2.00;;;4.60;99.90;;;;;;5233501;28;20063;-31
2022/02/16 12:10:19;;;;;;;2.63;1.75;;;9.80;99.90;;;;;;5212522;28;20059;-40
2022/02/16 12:12:55;;;;;;;3.75;1.80;;;7.10;99.90;;;;;;5230864;28;20052;-41
2022/02/16 12:15:47;;;;;;;3.80;2.00;;;9.20;99.90;;;;;;5208347;28;20476;-41
2022/02/16 12:18:20;;;;;;;4.20;2.30;;;;;;;;;;5229225;28;20043;-42
2022/02/16 12:20:52;;;;;;;7.30;1.90;;;7.00;99.90;;;;;;5235708;28;20059;-38
2022/02/16 12:23:28;;;;;;;3.92;2.35;;;7.00;99.90;;;;;;5227316;28;20048;-41
2022/02/16 12:26:07;;;;;;;4.15;1.95;;;8.60;99.90;;;;;;5221449;28;20044;-41
2022/02/16 12:28:59;;;;;;;2.78;1.77;;;7.10;99.90;;;;;;5208426;28;20470;-42
2022/02/16 12:31:37;;;;;;;2.88;2.15;;;9.00;99.90;;;;;;5203061;28;20256;-40
2022/02/16 12:34:17;;;;;;;2.95;2.10;;;7.20;99.90;;;;;;5227442;28;20056;-41
2022/02/16 12:37:03;;;;;;;3.22;1.90;;;7.20;99.90;;;;;;5230760;28;20059;-41
2022/02/16 12:39:36;;;;;;;5.22;2.28;;;7.80;99.90;;;;;;5230270;28;20070;-42
2022/02/16 12:42:10;;;;;;;3.33;2.13;;;10.10;99.90;;;;;;5226506;28;20074;-41
2022/02/16 12:44:44;;;;;;;110.15;24.50;;;;;;;;;;5232998;28;20415;-41
2022/02/16 12:47:16;;;;;;;7.13;3.20;;;9.60;99.90;;;;;;5247473;28;20040;-40
2022/02/16 12:49:50;;;;;;;4.07;2.20;;;10.10;99.90;;;;;;5244252;28;20039;-40
2022/02/16 12:52:28;;;;;;;4.60;2.42;;;7.30;99.90;;;;;;5248673;28;20048;-41
2022/02/16 12:55:06;;;;;;;3.67;2.00;;;7.60;99.90;;;;;;5220620;28;20511;-40
2022/02/16 12:57:40;;;;;;;4.25;2.53;;;8.50;99.90;;;;;;5213290;28;20048;-39
2022/02/16 13:03:13;;;;;;;3.95;1.90;;;9.50;99.90;;;;;;5207450;28;20044;-40
2022/02/16 13:05:47;;;;;;;3.22;1.83;;;7.30;99.90;;;;;;5228611;28;20500;-40
2022/02/16 13:08:24;;;;;;;3.50;1.83;;;5.80;99.90;;;;;;5245504;28;20408;-40
2022/02/16 13:10:58;;;;;;;2.85;1.75;;;7.60;99.90;;;;;;5216433;28;20043;-40
2022/02/16 13:13:32;;;;;;;3.10;2.40;;;7.20;99.90;;;;;;5243506;28;20055;-40
2022/02/16 13:16:05;;;;;;;2.33;1.70;;;7.30;99.90;;;;;;5245439;28;20070;-41
2022/02/16 13:18:44;;;;;;;1.80;1.48;;;6.40;99.90;;;;;;5222685;28;20056;-39
2022/02/16 13:21:22;;;;;;;3.67;1.70;;;5.00;99.90;;;;;;5229855;28;20717;-40
2022/02/16 13:24:09;;;;;;;2.72;2.00;;;9.60;99.90;;;;;;5201665;28;20873;-39
2022/02/16 13:26:42;;;;;;;3.13;1.75;;;3.70;99.90;;;;;;5192081;28;20055;-41
2022/02/16 13:29:17;;;;;;;3.22;1.55;;;;;;;;;;5219391;28;20503;-41
2022/02/16 13:31:49;;;;;;;2.67;1.75;;;9.50;99.90;;;;;;5207665;28;20049;-41
2022/02/16 13:34:24;;;;;;;3.45;2.03;;;;;;;;;;5227452;28;20423;-40
2022/02/16 13:37:07;;;;;;;4.20;1.40;;;7.20;99.90;;;;;;5220219;28;20051;-42
2022/02/16 13:39:40;;;;;;;2.88;1.90;;;;;;;;;;5222296;28;20052;-41
2022/02/16 13:42:16;;;;;;;2.08;1.70;;;8.20;99.90;;;;;;5217638;28;20054;-41
2022/02/16 13:44:53;;;;;;;2.80;1.95;;;7.20;99.90;;;;;;5227655;28;20043;-41
2022/02/16 13:47:52;;;;;;;3.90;1.70;;;5.40;99.90;;;;;;5229586;28;20043;-41
2022/02/16 13:50:34;;;;;;;2.22;1.63;;;9.00;99.90;;;;;;5219890;28;20472;-41
2022/02/16 13:53:08;;;;;;;2.67;1.88;;;6.90;99.90;;;;;;5237230;28;20048;-39
2022/02/16 13:55:43;;;;;;;2.65;1.52;;;8.70;99.90;;;;;;5220519;28;20048;-39
2022/02/16 13:58:17;;;;;;;3.95;1.83;;;7.20;99.90;;;;;;5236541;28;20040;-41
2022/02/16 14:01:10;;;;;;;2.45;1.70;;;7.20;99.90;;;;;;5223414;28;20510;-42
2022/02/16 14:04:01;;;;;;;2.95;1.70;;;7.20;99.90;;;;;;5228298;28;20055;-40
2022/02/16 14:06:34;;;;;;;4.70;1.73;;;7.20;99.90;;;;;;5200178;28;20055;-41
2022/02/16 14:09:07;;;;;;;1.98;1.60;;;7.20;99.90;;;;;;5202804;28;20056;-41
2022/02/16 14:11:45;;;;;;;5.18;1.60;;;5.70;99.90;;;;;;5233854;28;20048;-42
2022/02/16 14:14:17;;;;;;;3.40;1.95;;;7.10;99.90;;;;;;5222236;28;20052;-42
2022/02/16 14:16:50;;;;;;;3.75;1.98;;;8.10;99.90;;;;;;5196139;28;20059;-41
2022/02/16 14:19:22;;;;;;;2.65;1.65;;;7.20;99.90;;;;;;5223363;28;20048;-42
2022/02/16 14:22:00;;;;;;;4.70;1.70;;;8.30;99.90;;;;;;5222463;28;20041;-40
2022/02/16 14:24:34;;;;;;;3.15;1.45;;;7.20;99.90;;;;;;5223665;28;20044;-42
2022/02/16 14:27:10;;;;;;;3.60;1.70;;;7.20;99.90;;;;;;5189962;28;21402;-40
2022/02/16 14:29:46;;;;;;;3.03;1.90;;;7.20;99.90;;;;;;5201276;28;20055;-41
2022/02/16 14:32:19;;;;;;;1.83;1.70;;;8.80;99.90;;;;;;5185772;28;20552;-41
2022/02/16 14:34:58;;;;;;;6.15;1.48;;;7.60;99.90;;;;;;5222297;28;20053;-41
2022/02/16 14:37:33;;;;;;;3.65;1.88;;;7.20;99.90;;;;;;5226752;28;20040;-41
2022/02/16 14:40:08;;;;;;;2.22;1.60;;;7.30;99.90;;;;;;5235601;28;20064;-41
2022/02/16 14:42:44;;;;;;;2.95;1.83;;;8.30;99.90;;;;;;5218788;28;20072;-41
2022/02/16 14:45:16;;;;;;;3.55;1.58;;;7.00;99.90;;;;;;5214764;28;20047;-42
2022/02/16 14:47:50;;;;;;;3.05;1.58;;;5.60;99.90;;;;;;5217315;28;20451;-41
2022/02/16 14:50:23;;;;;;;3.90;1.70;;;6.70;99.90;;;;;;5219713;28;20052;-41
2022/02/16 14:52:56;;;;;;;2.97;1.70;;;7.20;99.90;;;;;;5213868;28;20058;-40
2022/02/16 14:55:28;;;;;;;3.03;1.77;;;6.50;99.90;;;;;;5240420;28;20052;-41
2022/02/16 14:58:03;;;;;;;5.53;2.00;;;8.70;99.90;;;;;;5215960;28;20052;-42